Portada
METAR-TAF:

METAR-TAF

Aeroports :

Kingaroy, Austràlia

latitud: 26-34-48S, longitud: 151-50-30E, altitud: 455 m

Observació

L'informe es va fer fa 30 minuts, a les 14:00 UTC
Vent 6 kt del Sud
Temperatura 3°C
Humitat 70%
Pressió 1018 hPa
Visibilitat 10 km o més

METAR: YKRY 161400Z AUTO 18006KT 9999 // NCD 03/M02 Q1018

Hora: 00:30 (14:30 UTC)


TAF: manca

Observacions i pronòstics meteorològics de més de 4000 aeroports (METAR i TAF).

Les estacions disponibles són els punts grocs i vermells al mapa.

Posi el ratolí al punt desitjat per veure el nom de l'estació.

Feu clic per veure les observacions i els pronòstics meteorològics.

Per canviar el mapa: feu clic els botons verds amb una creu de color negre per apropar; al botó verd amb un guió per allunyar la imatge; o en les fletxes verdes per a mapes adjacents.


METAR-TAF: